sensor_id;sensor_type;location;lat;lon;timestamp;P1;durP1;ratioP1;P2;durP2;ratioP2
68475;SDS011;55464;48.266;14.188;2023-08-31T00:02:06;4.88;;;4.25;;
68475;SDS011;55464;48.266;14.188;2023-08-31T00:04:31;4.57;;;3.95;;
68475;SDS011;55464;48.266;14.188;2023-08-31T00:06:57;9.30;;;4.45;;
68475;SDS011;55464;48.266;14.188;2023-08-31T00:09:23;4.57;;;4.18;;
68475;SDS011;55464;48.266;14.188;2023-08-31T00:11:49;4.93;;;3.75;;
68475;SDS011;55464;48.266;14.188;2023-08-31T00:14:15;9.50;;;4.00;;
68475;SDS011;55464;48.266;14.188;2023-08-31T00:16:41;8.35;;;4.20;;
68475;SDS011;55464;48.266;14.188;2023-08-31T00:19:06;6.00;;;4.10;;
68475;SDS011;55464;48.266;14.188;2023-08-31T00:21:32;5.38;;;4.88;;
68475;SDS011;55464;48.266;14.188;2023-08-31T00:23:58;5.03;;;4.50;;
68475;SDS011;55464;48.266;14.188;2023-08-31T00:26:24;4.90;;;4.30;;
68475;SDS011;55464;48.266;14.188;2023-08-31T00:28:49;6.85;;;4.78;;
68475;SDS011;55464;48.266;14.188;2023-08-31T00:31:15;4.97;;;4.47;;
68475;SDS011;55464;48.266;14.188;2023-08-31T00:33:40;7.88;;;4.22;;
68475;SDS011;55464;48.266;14.188;2023-08-31T00:36:06;8.13;;;4.53;;
68475;SDS011;55464;48.266;14.188;2023-08-31T00:38:31;8.60;;;5.22;;
68475;SDS011;55464;48.266;14.188;2023-08-31T00:40:57;4.95;;;4.45;;
68475;SDS011;55464;48.266;14.188;2023-08-31T00:43:22;8.13;;;5.15;;
68475;SDS011;55464;48.266;14.188;2023-08-31T00:45:49;7.45;;;4.35;;
68475;SDS011;55464;48.266;14.188;2023-08-31T00:48:16;9.90;;;4.47;;
68475;SDS011;55464;48.266;14.188;2023-08-31T00:50:42;6.03;;;5.18;;
68475;SDS011;55464;48.266;14.188;2023-08-31T00:53:11;5.60;;;4.60;;
68475;SDS011;55464;48.266;14.188;2023-08-31T00:55:38;6.18;;;5.63;;
68475;SDS011;55464;48.266;14.188;2023-08-31T00:58:09;9.55;;;6.13;;
68475;SDS011;55464;48.266;14.188;2023-08-31T01:08:41;7.00;;;6.30;;
68475;SDS011;55464;48.266;14.188;2023-08-31T01:11:14;7.43;;;6.45;;
68475;SDS011;55464;48.266;14.188;2023-08-31T01:16:40;7.68;;;6.50;;
68475;SDS011;55464;48.266;14.188;2023-08-31T01:19:09;7.97;;;6.72;;
68475;SDS011;55464;48.266;14.188;2023-08-31T01:21:50;11.80;;;7.25;;
68475;SDS011;55464;48.266;14.188;2023-08-31T01:24:19;8.10;;;6.45;;
68475;SDS011;55464;48.266;14.188;2023-08-31T01:26:47;9.45;;;7.15;;
68475;SDS011;55464;48.266;14.188;2023-08-31T01:29:12;8.68;;;7.22;;
68475;SDS011;55464;48.266;14.188;2023-08-31T01:31:41;8.50;;;6.55;;
68475;SDS011;55464;48.266;14.188;2023-08-31T01:34:08;7.50;;;6.60;;
68475;SDS011;55464;48.266;14.188;2023-08-31T01:36:34;7.97;;;6.57;;
68475;SDS011;55464;48.266;14.188;2023-08-31T01:39:19;11.95;;;6.20;;
68475;SDS011;55464;48.266;14.188;2023-08-31T01:41:53;7.90;;;6.15;;
68475;SDS011;55464;48.266;14.188;2023-08-31T01:44:22;6.97;;;5.45;;
68475;SDS011;55464;48.266;14.188;2023-08-31T01:46:51;5.47;;;4.97;;
68475;SDS011;55464;48.266;14.188;2023-08-31T01:49:19;8.25;;;5.65;;
68475;SDS011;55464;48.266;14.188;2023-08-31T01:51:45;5.85;;;5.25;;
68475;SDS011;55464;48.266;14.188;2023-08-31T01:54:10;7.15;;;5.18;;
68475;SDS011;55464;48.266;14.188;2023-08-31T01:56:35;5.43;;;4.93;;
68475;SDS011;55464;48.266;14.188;2023-08-31T01:59:01;6.10;;;5.50;;
68475;SDS011;55464;48.266;14.188;2023-08-31T02:01:26;6.30;;;5.38;;
68475;SDS011;55464;48.266;14.188;2023-08-31T02:03:52;8.15;;;4.93;;
68475;SDS011;55464;48.266;14.188;2023-08-31T02:06:18;6.38;;;4.72;;
68475;SDS011;55464;48.266;14.188;2023-08-31T02:08:43;7.03;;;4.97;;
68475;SDS011;55464;48.266;14.188;2023-08-31T02:11:12;7.78;;;5.70;;
68475;SDS011;55464;48.266;14.188;2023-08-31T02:13:37;5.63;;;4.75;;
68475;SDS011;55464;48.266;14.188;2023-08-31T02:16:03;6.57;;;5.53;;
68475;SDS011;55464;48.266;14.188;2023-08-31T02:18:29;6.60;;;5.22;;
68475;SDS011;55464;48.266;14.188;2023-08-31T02:20:54;6.95;;;6.20;;
68475;SDS011;55464;48.266;14.188;2023-08-31T02:23:20;6.47;;;5.88;;
68475;SDS011;55464;48.266;14.188;2023-08-31T02:25:45;6.65;;;5.72;;
68475;SDS011;55464;48.266;14.188;2023-08-31T02:28:10;6.97;;;5.63;;
68475;SDS011;55464;48.266;14.188;2023-08-31T02:30:36;6.07;;;5.40;;
68475;SDS011;55464;48.266;14.188;2023-08-31T02:33:02;6.47;;;5.43;;
68475;SDS011;55464;48.266;14.188;2023-08-31T02:35:28;6.70;;;5.85;;
68475;SDS011;55464;48.266;14.188;2023-08-31T02:37:53;6.40;;;5.80;;
68475;SDS011;55464;48.266;14.188;2023-08-31T02:40:19;6.13;;;5.10;;
68475;SDS011;55464;48.266;14.188;2023-08-31T02:42:46;6.13;;;5.53;;
68475;SDS011;55464;48.266;14.188;2023-08-31T02:45:12;6.93;;;5.10;;
68475;SDS011;55464;48.266;14.188;2023-08-31T02:47:37;7.40;;;5.00;;
68475;SDS011;55464;48.266;14.188;2023-08-31T02:50:03;7.00;;;4.82;;
68475;SDS011;55464;48.266;14.188;2023-08-31T02:52:29;6.22;;;5.63;;
68475;SDS011;55464;48.266;14.188;2023-08-31T02:54:54;5.03;;;4.28;;
68475;SDS011;55464;48.266;14.188;2023-08-31T02:57:20;5.75;;;5.07;;
68475;SDS011;55464;48.266;14.188;2023-08-31T02:59:49;7.97;;;5.78;;
68475;SDS011;55464;48.266;14.188;2023-08-31T03:02:15;5.82;;;5.18;;
68475;SDS011;55464;48.266;14.188;2023-08-31T03:04:40;6.65;;;5.15;;
68475;SDS011;55464;48.266;14.188;2023-08-31T03:07:06;6.57;;;4.55;;
68475;SDS011;55464;48.266;14.188;2023-08-31T03:09:31;5.75;;;5.03;;
68475;SDS011;55464;48.266;14.188;2023-08-31T03:11:56;5.68;;;4.78;;
68475;SDS011;55464;48.266;14.188;2023-08-31T03:14:22;7.82;;;4.93;;
68475;SDS011;55464;48.266;14.188;2023-08-31T03:16:47;8.38;;;4.55;;
68475;SDS011;55464;48.266;14.188;2023-08-31T03:19:14;8.50;;;4.88;;
68475;SDS011;55464;48.266;14.188;2023-08-31T03:21:39;6.05;;;4.93;;
68475;SDS011;55464;48.266;14.188;2023-08-31T03:24:05;5.95;;;5.35;;
68475;SDS011;55464;48.266;14.188;2023-08-31T03:26:30;6.70;;;4.43;;
68475;SDS011;55464;48.266;14.188;2023-08-31T03:28:56;7.00;;;4.82;;
68475;SDS011;55464;48.266;14.188;2023-08-31T03:31:22;5.60;;;5.10;;
68475;SDS011;55464;48.266;14.188;2023-08-31T03:33:47;6.00;;;5.05;;
68475;SDS011;55464;48.266;14.188;2023-08-31T03:36:12;5.13;;;4.63;;
68475;SDS011;55464;48.266;14.188;2023-08-31T03:38:38;5.00;;;4.47;;
68475;SDS011;55464;48.266;14.188;2023-08-31T03:41:03;6.10;;;5.30;;
68475;SDS011;55464;48.266;14.188;2023-08-31T03:43:29;8.60;;;5.22;;
68475;SDS011;55464;48.266;14.188;2023-08-31T03:45:55;5.53;;;5.03;;
68475;SDS011;55464;48.266;14.188;2023-08-31T03:48:22;12.70;;;5.72;;
68475;SDS011;55464;48.266;14.188;2023-08-31T03:50:49;7.45;;;5.82;;
68475;SDS011;55464;48.266;14.188;2023-08-31T03:53:16;8.75;;;5.25;;
68475;SDS011;55464;48.266;14.188;2023-08-31T03:55:41;8.98;;;5.43;;
68475;SDS011;55464;48.266;14.188;2023-08-31T03:58:07;6.15;;;5.55;;
68475;SDS011;55464;48.266;14.188;2023-08-31T04:00:32;5.82;;;4.70;;
68475;SDS011;55464;48.266;14.188;2023-08-31T04:02:58;7.57;;;5.32;;
68475;SDS011;55464;48.266;14.188;2023-08-31T04:05:23;5.60;;;4.90;;
68475;SDS011;55464;48.266;14.188;2023-08-31T04:07:48;8.02;;;5.30;;
68475;SDS011;55464;48.266;14.188;2023-08-31T04:10:14;6.55;;;5.13;;
68475;SDS011;55464;48.266;14.188;2023-08-31T04:12:39;5.95;;;5.10;;
68475;SDS011;55464;48.266;14.188;2023-08-31T04:15:05;6.88;;;5.32;;
68475;SDS011;55464;48.266;14.188;2023-08-31T04:17:31;9.27;;;5.35;;
68475;SDS011;55464;48.266;14.188;2023-08-31T04:19:57;6.60;;;4.72;;
68475;SDS011;55464;48.266;14.188;2023-08-31T04:22:23;5.38;;;4.88;;
68475;SDS011;55464;48.266;14.188;2023-08-31T04:24:48;6.00;;;4.70;;
68475;SDS011;55464;48.266;14.188;2023-08-31T04:27:14;5.97;;;4.80;;
68475;SDS011;55464;48.266;14.188;2023-08-31T04:29:39;6.18;;;4.97;;
68475;SDS011;55464;48.266;14.188;2023-08-31T04:32:05;6.35;;;4.60;;
68475;SDS011;55464;48.266;14.188;2023-08-31T04:34:30;8.75;;;4.82;;
68475;SDS011;55464;48.266;14.188;2023-08-31T04:36:56;8.50;;;4.93;;
68475;SDS011;55464;48.266;14.188;2023-08-31T04:39:21;6.47;;;4.97;;
68475;SDS011;55464;48.266;14.188;2023-08-31T04:41:47;6.00;;;5.30;;
68475;SDS011;55464;48.266;14.188;2023-08-31T04:44:12;5.30;;;4.75;;
68475;SDS011;55464;48.266;14.188;2023-08-31T04:46:38;4.68;;;4.28;;
68475;SDS011;55464;48.266;14.188;2023-08-31T04:49:03;3.70;;;3.40;;
68475;SDS011;55464;48.266;14.188;2023-08-31T04:51:29;5.38;;;3.30;;
68475;SDS011;55464;48.266;14.188;2023-08-31T04:56:26;3.72;;;3.42;;
68475;SDS011;55464;48.266;14.188;2023-08-31T04:58:55;4.13;;;3.67;;
68475;SDS011;55464;48.266;14.188;2023-08-31T05:01:20;3.80;;;3.50;;
68475;SDS011;55464;48.266;14.188;2023-08-31T05:03:46;3.67;;;3.30;;
68475;SDS011;55464;48.266;14.188;2023-08-31T05:06:11;3.20;;;3.00;;
68475;SDS011;55464;48.266;14.188;2023-08-31T05:08:37;3.00;;;2.80;;
68475;SDS011;55464;48.266;14.188;2023-08-31T05:11:03;3.40;;;3.10;;
68475;SDS011;55464;48.266;14.188;2023-08-31T05:13:29;3.53;;;3.20;;
68475;SDS011;55464;48.266;14.188;2023-08-31T05:15:54;7.68;;;3.72;;
68475;SDS011;55464;48.266;14.188;2023-08-31T05:18:20;19.33;;;3.92;;
68475;SDS011;55464;48.266;14.188;2023-08-31T05:20:45;9.75;;;4.80;;
68475;SDS011;55464;48.266;14.188;2023-08-31T05:23:13;16.15;;;4.65;;
68475;SDS011;55464;48.266;14.188;2023-08-31T05:25:45;12.80;;;5.20;;
68475;SDS011;55464;48.266;14.188;2023-08-31T05:28:11;14.07;;;4.75;;
68475;SDS011;55464;48.266;14.188;2023-08-31T05:30:37;8.30;;;5.57;;
68475;SDS011;55464;48.266;14.188;2023-08-31T05:33:11;18.83;;;6.15;;
68475;SDS011;55464;48.266;14.188;2023-08-31T05:35:36;7.15;;;6.03;;
68475;SDS011;55464;48.266;14.188;2023-08-31T05:38:01;11.25;;;6.75;;
68475;SDS011;55464;48.266;14.188;2023-08-31T05:40:28;7.38;;;6.40;;
68475;SDS011;55464;48.266;14.188;2023-08-31T05:42:53;9.63;;;6.65;;
68475;SDS011;55464;48.266;14.188;2023-08-31T05:45:19;12.07;;;5.88;;
68475;SDS011;55464;48.266;14.188;2023-08-31T05:47:44;8.10;;;6.68;;
68475;SDS011;55464;48.266;14.188;2023-08-31T05:50:10;8.88;;;7.10;;
68475;SDS011;55464;48.266;14.188;2023-08-31T05:52:35;7.82;;;6.47;;
68475;SDS011;55464;48.266;14.188;2023-08-31T05:55:02;9.60;;;6.20;;
68475;SDS011;55464;48.266;14.188;2023-08-31T05:57:28;6.97;;;6.28;;
68475;SDS011;55464;48.266;14.188;2023-08-31T05:59:54;10.18;;;5.78;;
68475;SDS011;55464;48.266;14.188;2023-08-31T06:02:19;7.07;;;5.35;;
68475;SDS011;55464;48.266;14.188;2023-08-31T06:04:45;6.95;;;6.03;;
68475;SDS011;55464;48.266;14.188;2023-08-31T06:07:10;6.90;;;6.20;;
68475;SDS011;55464;48.266;14.188;2023-08-31T06:09:36;7.35;;;5.63;;
68475;SDS011;55464;48.266;14.188;2023-08-31T06:12:03;6.38;;;5.78;;
68475;SDS011;55464;48.266;14.188;2023-08-31T06:14:29;6.32;;;5.72;;
68475;SDS011;55464;48.266;14.188;2023-08-31T06:16:54;6.65;;;5.95;;
68475;SDS011;55464;48.266;14.188;2023-08-31T06:19:19;5.90;;;4.95;;
68475;SDS011;55464;48.266;14.188;2023-08-31T06:21:45;6.70;;;4.60;;
68475;SDS011;55464;48.266;14.188;2023-08-31T06:24:10;6.40;;;4.68;;
68475;SDS011;55464;48.266;14.188;2023-08-31T06:26:38;5.25;;;4.68;;
68475;SDS011;55464;48.266;14.188;2023-08-31T06:29:04;5.30;;;4.35;;
68475;SDS011;55464;48.266;14.188;2023-08-31T06:31:29;4.32;;;3.92;;
68475;SDS011;55464;48.266;14.188;2023-08-31T06:33:55;4.63;;;4.15;;
68475;SDS011;55464;48.266;14.188;2023-08-31T06:36:20;4.25;;;3.85;;
68475;SDS011;55464;48.266;14.188;2023-08-31T06:38:45;6.63;;;4.80;;
68475;SDS011;55464;48.266;14.188;2023-08-31T06:41:11;4.60;;;4.20;;
68475;SDS011;55464;48.266;14.188;2023-08-31T06:43:37;6.45;;;3.95;;
68475;SDS011;55464;48.266;14.188;2023-08-31T06:46:02;4.00;;;3.60;;
68475;SDS011;55464;48.266;14.188;2023-08-31T06:48:27;4.28;;;3.90;;
68475;SDS011;55464;48.266;14.188;2023-08-31T06:50:53;4.13;;;3.72;;
68475;SDS011;55464;48.266;14.188;2023-08-31T06:53:19;3.47;;;3.10;;
68475;SDS011;55464;48.266;14.188;2023-08-31T06:55:44;7.18;;;3.83;;
68475;SDS011;55464;48.266;14.188;2023-08-31T06:58:10;7.50;;;3.95;;
68475;SDS011;55464;48.266;14.188;2023-08-31T07:00:35;3.08;;;2.85;;
68475;SDS011;55464;48.266;14.188;2023-08-31T07:03:01;2.90;;;2.70;;
68475;SDS011;55464;48.266;14.188;2023-08-31T07:05:27;3.60;;;3.28;;
68475;SDS011;55464;48.266;14.188;2023-08-31T07:07:54;6.38;;;3.50;;
68475;SDS011;55464;48.266;14.188;2023-08-31T07:10:20;4.15;;;2.60;;
68475;SDS011;55464;48.266;14.188;2023-08-31T07:12:46;2.60;;;2.40;;
68475;SDS011;55464;48.266;14.188;2023-08-31T07:15:12;3.28;;;2.95;;
68475;SDS011;55464;48.266;14.188;2023-08-31T07:17:37;3.20;;;2.70;;
68475;SDS011;55464;48.266;14.188;2023-08-31T07:20:03;2.83;;;2.63;;
68475;SDS011;55464;48.266;14.188;2023-08-31T07:22:31;2.42;;;2.03;;
68475;SDS011;55464;48.266;14.188;2023-08-31T07:24:58;2.50;;;2.30;;
68475;SDS011;55464;48.266;14.188;2023-08-31T07:27:23;2.72;;;2.40;;
68475;SDS011;55464;48.266;14.188;2023-08-31T07:29:48;2.55;;;2.35;;
68475;SDS011;55464;48.266;14.188;2023-08-31T07:32:14;2.55;;;2.15;;
68475;SDS011;55464;48.266;14.188;2023-08-31T07:34:39;2.85;;;1.83;;
68475;SDS011;55464;48.266;14.188;2023-08-31T07:37:05;2.42;;;1.80;;
68475;SDS011;55464;48.266;14.188;2023-08-31T07:39:31;2.45;;;1.83;;
68475;SDS011;55464;48.266;14.188;2023-08-31T07:41:57;2.05;;;1.80;;
68475;SDS011;55464;48.266;14.188;2023-08-31T07:44:24;2.80;;;1.63;;
68475;SDS011;55464;48.266;14.188;2023-08-31T07:46:50;4.35;;;1.80;;
68475;SDS011;55464;48.266;14.188;2023-08-31T07:49:15;1.38;;;1.27;;
68475;SDS011;55464;48.266;14.188;2023-08-31T07:51:41;2.75;;;1.42;;
68475;SDS011;55464;48.266;14.188;2023-08-31T07:54:06;1.73;;;1.15;;
68475;SDS011;55464;48.266;14.188;2023-08-31T07:56:31;2.90;;;1.40;;
68475;SDS011;55464;48.266;14.188;2023-08-31T07:58:57;2.30;;;1.33;;
68475;SDS011;55464;48.266;14.188;2023-08-31T08:01:23;1.83;;;1.30;;
68475;SDS011;55464;48.266;14.188;2023-08-31T08:03:48;1.63;;;1.52;;
68475;SDS011;55464;48.266;14.188;2023-08-31T08:06:14;1.92;;;1.40;;
68475;SDS011;55464;48.266;14.188;2023-08-31T08:08:39;3.08;;;1.50;;
68475;SDS011;55464;48.266;14.188;2023-08-31T08:11:05;2.50;;;1.75;;
68475;SDS011;55464;48.266;14.188;2023-08-31T08:13:30;2.88;;;1.67;;
68475;SDS011;55464;48.266;14.188;2023-08-31T08:15:55;2.47;;;1.88;;
68475;SDS011;55464;48.266;14.188;2023-08-31T08:18:21;1.65;;;1.55;;
68475;SDS011;55464;48.266;14.188;2023-08-31T08:20:47;2.08;;;1.88;;
68475;SDS011;55464;48.266;14.188;2023-08-31T08:23:13;3.95;;;2.05;;
68475;SDS011;55464;48.266;14.188;2023-08-31T08:25:39;2.03;;;1.80;;
68475;SDS011;55464;48.266;14.188;2023-08-31T08:28:04;2.75;;;2.00;;
68475;SDS011;55464;48.266;14.188;2023-08-31T08:30:30;2.60;;;1.95;;
68475;SDS011;55464;48.266;14.188;2023-08-31T08:32:55;2.92;;;2.15;;
68475;SDS011;55464;48.266;14.188;2023-08-31T08:35:22;2.15;;;2.00;;
68475;SDS011;55464;48.266;14.188;2023-08-31T08:37:47;2.50;;;1.83;;
68475;SDS011;55464;48.266;14.188;2023-08-31T08:40:13;2.38;;;2.15;;
68475;SDS011;55464;48.266;14.188;2023-08-31T08:42:39;3.22;;;2.40;;
68475;SDS011;55464;48.266;14.188;2023-08-31T08:45:13;3.42;;;2.30;;
68475;SDS011;55464;48.266;14.188;2023-08-31T08:47:43;2.53;;;2.33;;
68475;SDS011;55464;48.266;14.188;2023-08-31T08:50:10;3.72;;;2.35;;
68475;SDS011;55464;48.266;14.188;2023-08-31T08:52:36;2.35;;;2.15;;
68475;SDS011;55464;48.266;14.188;2023-08-31T08:55:03;2.20;;;2.00;;
68475;SDS011;55464;48.266;14.188;2023-08-31T08:57:33;2.33;;;2.13;;
68475;SDS011;55464;48.266;14.188;2023-08-31T08:59:59;19.23;;;4.80;;
68475;SDS011;55464;48.266;14.188;2023-08-31T09:02:24;3.50;;;2.50;;
68475;SDS011;55464;48.266;14.188;2023-08-31T09:04:50;3.38;;;2.13;;
68475;SDS011;55464;48.266;14.188;2023-08-31T09:07:23;5.45;;;2.00;;
68475;SDS011;55464;48.266;14.188;2023-08-31T09:09:49;4.43;;;2.30;;
68475;SDS011;55464;48.266;14.188;2023-08-31T09:12:16;3.90;;;1.85;;
68475;SDS011;55464;48.266;14.188;2023-08-31T09:14:41;2.03;;;1.90;;
68475;SDS011;55464;48.266;14.188;2023-08-31T09:17:07;1.95;;;1.75;;
68475;SDS011;55464;48.266;14.188;2023-08-31T09:19:32;3.70;;;2.00;;
68475;SDS011;55464;48.266;14.188;2023-08-31T09:21:57;2.38;;;1.88;;
68475;SDS011;55464;48.266;14.188;2023-08-31T09:24:23;2.45;;;1.60;;
68475;SDS011;55464;48.266;14.188;2023-08-31T09:26:53;1.95;;;1.85;;
68475;SDS011;55464;48.266;14.188;2023-08-31T09:29:20;2.65;;;1.88;;
68475;SDS011;55464;48.266;14.188;2023-08-31T09:31:46;5.82;;;1.70;;
68475;SDS011;55464;48.266;14.188;2023-08-31T09:34:15;2.95;;;1.80;;
68475;SDS011;55464;48.266;14.188;2023-08-31T09:36:41;2.28;;;2.00;;
68475;SDS011;55464;48.266;14.188;2023-08-31T09:39:07;2.67;;;1.40;;
68475;SDS011;55464;48.266;14.188;2023-08-31T09:41:34;2.30;;;1.58;;
68475;SDS011;55464;48.266;14.188;2023-08-31T09:44:16;3.58;;;1.83;;
68475;SDS011;55464;48.266;14.188;2023-08-31T09:46:45;3.03;;;1.60;;
68475;SDS011;55464;48.266;14.188;2023-08-31T09:49:13;2.63;;;1.60;;
68475;SDS011;55464;48.266;14.188;2023-08-31T09:51:41;4.85;;;2.08;;
68475;SDS011;55464;48.266;14.188;2023-08-31T09:54:13;4.35;;;2.25;;
68475;SDS011;55464;48.266;14.188;2023-08-31T09:56:40;4.47;;;1.83;;
68475;SDS011;55464;48.266;14.188;2023-08-31T09:59:07;3.10;;;1.63;;
68475;SDS011;55464;48.266;14.188;2023-08-31T10:01:33;2.42;;;1.90;;
68475;SDS011;55464;48.266;14.188;2023-08-31T10:04:00;3.33;;;2.00;;
68475;SDS011;55464;48.266;14.188;2023-08-31T10:06:27;4.43;;;1.63;;
68475;SDS011;55464;48.266;14.188;2023-08-31T10:08:53;2.75;;;1.63;;
68475;SDS011;55464;48.266;14.188;2023-08-31T10:11:19;2.90;;;1.70;;
68475;SDS011;55464;48.266;14.188;2023-08-31T10:13:45;3.65;;;2.08;;
68475;SDS011;55464;48.266;14.188;2023-08-31T10:16:13;2.55;;;1.63;;
68475;SDS011;55464;48.266;14.188;2023-08-31T10:18:40;2.88;;;1.83;;
68475;SDS011;55464;48.266;14.188;2023-08-31T10:21:06;2.35;;;1.52;;
68475;SDS011;55464;48.266;14.188;2023-08-31T10:23:33;2.83;;;1.67;;
68475;SDS011;55464;48.266;14.188;2023-08-31T10:26:00;1.60;;;1.50;;
68475;SDS011;55464;48.266;14.188;2023-08-31T10:28:27;4.63;;;1.55;;
68475;SDS011;55464;48.266;14.188;2023-08-31T10:31:06;2.83;;;1.65;;
68475;SDS011;55464;48.266;14.188;2023-08-31T10:33:43;6.03;;;1.83;;
68475;SDS011;55464;48.266;14.188;2023-08-31T10:38:42;3.70;;;2.25;;
68475;SDS011;55464;48.266;14.188;2023-08-31T10:43:49;4.07;;;1.90;;
68475;SDS011;55464;48.266;14.188;2023-08-31T10:46:29;5.10;;;1.55;;
68475;SDS011;55464;48.266;14.188;2023-08-31T10:51:21;3.60;;;1.80;;
68475;SDS011;55464;48.266;14.188;2023-08-31T10:53:48;3.88;;;1.80;;
68475;SDS011;55464;48.266;14.188;2023-08-31T10:56:15;2.13;;;1.35;;
68475;SDS011;55464;48.266;14.188;2023-08-31T10:58:41;1.40;;;1.30;;
68475;SDS011;55464;48.266;14.188;2023-08-31T11:01:07;3.05;;;2.42;;
68475;SDS011;55464;48.266;14.188;2023-08-31T11:03:32;3.20;;;1.40;;
68475;SDS011;55464;48.266;14.188;2023-08-31T11:06:18;4.72;;;1.52;;
68475;SDS011;55464;48.266;14.188;2023-08-31T11:08:44;2.40;;;1.50;;
68475;SDS011;55464;48.266;14.188;2023-08-31T11:11:09;4.68;;;1.55;;
68475;SDS011;55464;48.266;14.188;2023-08-31T11:13:34;2.60;;;1.70;;
68475;SDS011;55464;48.266;14.188;2023-08-31T11:16:00;2.38;;;1.75;;
68475;SDS011;55464;48.266;14.188;2023-08-31T11:18:26;2.17;;;1.50;;
68475;SDS011;55464;48.266;14.188;2023-08-31T11:20:51;3.25;;;1.60;;
68475;SDS011;55464;48.266;14.188;2023-08-31T11:23:17;1.45;;;1.30;;
68475;SDS011;55464;48.266;14.188;2023-08-31T11:25:42;2.80;;;1.45;;
68475;SDS011;55464;48.266;14.188;2023-08-31T11:28:08;3.47;;;1.70;;
68475;SDS011;55464;48.266;14.188;2023-08-31T11:30:33;1.77;;;1.60;;
68475;SDS011;55464;48.266;14.188;2023-08-31T11:33:03;4.55;;;2.10;;
68475;SDS011;55464;48.266;14.188;2023-08-31T11:35:34;2.00;;;1.60;;
68475;SDS011;55464;48.266;14.188;2023-08-31T11:38:01;1.50;;;1.40;;
68475;SDS011;55464;48.266;14.188;2023-08-31T11:40:28;2.25;;;1.42;;
68475;SDS011;55464;48.266;14.188;2023-08-31T11:42:53;1.77;;;1.60;;
68475;SDS011;55464;48.266;14.188;2023-08-31T11:45:19;4.22;;;1.55;;
68475;SDS011;55464;48.266;14.188;2023-08-31T11:47:47;2.30;;;1.35;;
68475;SDS011;55464;48.266;14.188;2023-08-31T11:50:14;3.38;;;1.48;;
68475;SDS011;55464;48.266;14.188;2023-08-31T11:52:41;3.70;;;1.30;;
68475;SDS011;55464;48.266;14.188;2023-08-31T11:55:15;5.22;;;1.52;;
68475;SDS011;55464;48.266;14.188;2023-08-31T11:57:50;2.17;;;1.35;;
68475;SDS011;55464;48.266;14.188;2023-08-31T12:00:17;5.65;;;1.73;;
68475;SDS011;55464;48.266;14.188;2023-08-31T12:02:55;3.30;;;1.50;;
68475;SDS011;55464;48.266;14.188;2023-08-31T12:05:24;2.67;;;1.30;;
68475;SDS011;55464;48.266;14.188;2023-08-31T12:07:50;2.80;;;1.63;;
68475;SDS011;55464;48.266;14.188;2023-08-31T12:10:19;3.13;;;1.60;;
68475;SDS011;55464;48.266;14.188;2023-08-31T12:12:45;4.57;;;1.50;;
68475;SDS011;55464;48.266;14.188;2023-08-31T12:15:10;2.70;;;1.20;;
68475;SDS011;55464;48.266;14.188;2023-08-31T12:17:39;5.03;;;1.52;;
68475;SDS011;55464;48.266;14.188;2023-08-31T12:20:06;2.92;;;1.38;;
68475;SDS011;55464;48.266;14.188;2023-08-31T12:22:32;3.22;;;1.50;;
68475;SDS011;55464;48.266;14.188;2023-08-31T12:24:58;4.47;;;1.40;;
68475;SDS011;55464;48.266;14.188;2023-08-31T12:27:23;4.10;;;1.63;;
68475;SDS011;55464;48.266;14.188;2023-08-31T12:29:49;3.70;;;1.63;;
68475;SDS011;55464;48.266;14.188;2023-08-31T12:32:15;3.65;;;1.30;;
68475;SDS011;55464;48.266;14.188;2023-08-31T12:34:43;2.80;;;1.38;;
68475;SDS011;55464;48.266;14.188;2023-08-31T12:37:09;6.63;;;1.20;;
68475;SDS011;55464;48.266;14.188;2023-08-31T12:39:34;3.65;;;1.20;;
68475;SDS011;55464;48.266;14.188;2023-08-31T12:42:00;4.13;;;1.83;;
68475;SDS011;55464;48.266;14.188;2023-08-31T12:44:25;4.72;;;1.58;;
68475;SDS011;55464;48.266;14.188;2023-08-31T12:46:51;2.33;;;1.63;;
68475;SDS011;55464;48.266;14.188;2023-08-31T12:49:17;2.83;;;1.20;;
68475;SDS011;55464;48.266;14.188;2023-08-31T12:51:42;2.45;;;1.10;;
68475;SDS011;55464;48.266;14.188;2023-08-31T12:54:08;4.43;;;1.58;;
68475;SDS011;55464;48.266;14.188;2023-08-31T12:56:34;3.97;;;1.55;;
68475;SDS011;55464;48.266;14.188;2023-08-31T12:58:59;3.55;;;2.58;;
68475;SDS011;55464;48.266;14.188;2023-08-31T13:01:25;3.50;;;1.60;;
68475;SDS011;55464;48.266;14.188;2023-08-31T13:03:51;4.72;;;1.55;;
68475;SDS011;55464;48.266;14.188;2023-08-31T13:06:17;3.35;;;1.38;;
68475;SDS011;55464;48.266;14.188;2023-08-31T13:08:43;3.35;;;1.50;;
68475;SDS011;55464;48.266;14.188;2023-08-31T13:11:11;4.28;;;1.50;;
68475;SDS011;55464;48.266;14.188;2023-08-31T13:13:40;4.63;;;1.63;;
68475;SDS011;55464;48.266;14.188;2023-08-31T13:16:05;3.03;;;1.20;;
68475;SDS011;55464;48.266;14.188;2023-08-31T13:18:31;3.40;;;1.20;;
68475;SDS011;55464;48.266;14.188;2023-08-31T13:20:56;2.13;;;1.17;;
68475;SDS011;55464;48.266;14.188;2023-08-31T13:23:22;1.95;;;1.20;;
68475;SDS011;55464;48.266;14.188;2023-08-31T13:25:48;3.42;;;1.17;;
68475;SDS011;55464;48.266;14.188;2023-08-31T13:28:15;1.80;;;1.52;;
68475;SDS011;55464;48.266;14.188;2023-08-31T13:30:40;3.67;;;1.50;;
68475;SDS011;55464;48.266;14.188;2023-08-31T13:33:07;3.47;;;1.33;;
68475;SDS011;55464;48.266;14.188;2023-08-31T13:35:33;4.50;;;1.60;;
68475;SDS011;55464;48.266;14.188;2023-08-31T13:37:59;3.63;;;1.55;;
68475;SDS011;55464;48.266;14.188;2023-08-31T13:40:25;5.75;;;1.40;;
68475;SDS011;55464;48.266;14.188;2023-08-31T13:42:54;2.50;;;1.67;;
68475;SDS011;55464;48.266;14.188;2023-08-31T13:45:26;1.98;;;1.15;;
68475;SDS011;55464;48.266;14.188;2023-08-31T13:47:52;2.08;;;1.25;;
68475;SDS011;55464;48.266;14.188;2023-08-31T13:50:18;2.28;;;1.30;;
68475;SDS011;55464;48.266;14.188;2023-08-31T13:52:44;1.95;;;1.30;;
68475;SDS011;55464;48.266;14.188;2023-08-31T13:55:10;6.40;;;2.35;;
68475;SDS011;55464;48.266;14.188;2023-08-31T13:57:35;1.55;;;1.23;;
68475;SDS011;55464;48.266;14.188;2023-08-31T14:00:01;3.03;;;1.45;;
68475;SDS011;55464;48.266;14.188;2023-08-31T14:02:29;2.92;;;1.40;;
68475;SDS011;55464;48.266;14.188;2023-08-31T14:04:55;3.72;;;1.40;;
68475;SDS011;55464;48.266;14.188;2023-08-31T14:07:21;2.10;;;1.55;;
68475;SDS011;55464;48.266;14.188;2023-08-31T14:09:46;1.77;;;1.55;;
68475;SDS011;55464;48.266;14.188;2023-08-31T14:12:12;2.85;;;1.40;;
68475;SDS011;55464;48.266;14.188;2023-08-31T14:14:38;3.35;;;1.50;;
68475;SDS011;55464;48.266;14.188;2023-08-31T14:17:04;4.10;;;1.35;;
68475;SDS011;55464;48.266;14.188;2023-08-31T14:19:30;2.45;;;1.52;;
68475;SDS011;55464;48.266;14.188;2023-08-31T14:21:57;6.15;;;1.80;;
68475;SDS011;55464;48.266;14.188;2023-08-31T14:24:22;3.15;;;1.23;;
68475;SDS011;55464;48.266;14.188;2023-08-31T14:26:48;3.55;;;1.40;;
68475;SDS011;55464;48.266;14.188;2023-08-31T14:29:14;1.50;;;1.23;;
68475;SDS011;55464;48.266;14.188;2023-08-31T14:31:39;3.80;;;1.83;;
68475;SDS011;55464;48.266;14.188;2023-08-31T14:34:05;1.40;;;1.05;;
68475;SDS011;55464;48.266;14.188;2023-08-31T14:36:30;1.65;;;1.15;;
68475;SDS011;55464;48.266;14.188;2023-08-31T14:38:56;1.52;;;1.10;;
68475;SDS011;55464;48.266;14.188;2023-08-31T14:41:21;3.63;;;1.40;;
68475;SDS011;55464;48.266;14.188;2023-08-31T14:43:47;1.40;;;1.25;;
68475;SDS011;55464;48.266;14.188;2023-08-31T14:46:12;3.10;;;1.35;;
68475;SDS011;55464;48.266;14.188;2023-08-31T14:48:38;3.50;;;1.33;;
68475;SDS011;55464;48.266;14.188;2023-08-31T14:51:03;1.58;;;1.30;;